Weather at Owen Roberts International Airport

Public forecast

Using degrees Celsius for public forecast. Weather courtesy of forecast.io.

Current aviation weather report (METAR) for Owen Roberts International Airport

Report is more than 2 hours old.

Retrieved 2021/02/27 03:00 UTC (3 hours ago):

MWCR 270300Z 09007KT CAVOK 26/22 Q1017

Aviation forecast (TAF) for Owen Roberts International Airport

Retrieved 2021-02-27 00:52 UTC (5 hours ago):

TAF MWCR 270300Z 2700/2724 CNL